Terminal Aerodrome Forecast
Issued by NWS

Home | Current Version | Previous Version | Graphics & Text | Print | Product List | Glossary On
Versions: 1 2 3 4 5 6 7 8 9 10 11 12 13 14 15 16 17 18 19
000
FTUS43 KICT 312100 AAB
TAFRSL
TAF AMD
KRSL 312123Z 3121/0118 18021G30KT P6SM VCTS SCT070CB BKN120
      TEMPO 3122/0102 VRB25G43KT 2SM +TSRA OVC040CB
     FM010300 32013KT P6SM VCTS SCT040CB BKN080
     FM010600 05009KT 5SM BR SCT040 BKN080
     FM011400 36012KT P6SM BKN120=

USA.gov is the U.S. government's official web portal to all federal, state and local government web resources and services.